sensor_id;sensor_type;location;lat;lon;timestamp;P1;durP1;ratioP1;P2;durP2;ratioP2
12745;SDS011;6437;53.686;10.030;2023-04-01T00:01:59;11.77;;;2.65;;
12745;SDS011;6437;53.686;10.030;2023-04-01T00:04:02;14.27;;;2.83;;
12745;SDS011;6437;53.686;10.030;2023-04-01T00:06:04;5.50;;;2.53;;
12745;SDS011;6437;53.686;10.030;2023-04-01T00:10:09;7.38;;;2.30;;
12745;SDS011;6437;53.686;10.030;2023-04-01T00:12:12;11.95;;;3.40;;
12745;SDS011;6437;53.686;10.030;2023-04-01T00:14:14;11.55;;;3.17;;
12745;SDS011;6437;53.686;10.030;2023-04-01T00:16:16;9.35;;;3.05;;
12745;SDS011;6437;53.686;10.030;2023-04-01T00:18:18;7.43;;;2.55;;
12745;SDS011;6437;53.686;10.030;2023-04-01T00:20:22;17.60;;;3.25;;
12745;SDS011;6437;53.686;10.030;2023-04-01T00:22:24;9.02;;;2.22;;
12745;SDS011;6437;53.686;10.030;2023-04-01T00:24:26;9.80;;;3.05;;
12745;SDS011;6437;53.686;10.030;2023-04-01T00:26:28;9.98;;;2.50;;
12745;SDS011;6437;53.686;10.030;2023-04-01T00:30:32;11.33;;;2.87;;
12745;SDS011;6437;53.686;10.030;2023-04-01T00:32:33;11.55;;;2.85;;
12745;SDS011;6437;53.686;10.030;2023-04-01T00:34:35;8.20;;;2.53;;
12745;SDS011;6437;53.686;10.030;2023-04-01T00:36:39;8.90;;;2.90;;
12745;SDS011;6437;53.686;10.030;2023-04-01T00:38:41;8.20;;;2.00;;
12745;SDS011;6437;53.686;10.030;2023-04-01T00:40:43;9.52;;;2.72;;
12745;SDS011;6437;53.686;10.030;2023-04-01T00:42:46;8.40;;;2.50;;
12745;SDS011;6437;53.686;10.030;2023-04-01T00:44:50;10.27;;;2.58;;
12745;SDS011;6437;53.686;10.030;2023-04-01T00:46:52;12.40;;;2.55;;
12745;SDS011;6437;53.686;10.030;2023-04-01T00:48:54;12.43;;;3.25;;
12745;SDS011;6437;53.686;10.030;2023-04-01T00:50:58;12.10;;;3.10;;
12745;SDS011;6437;53.686;10.030;2023-04-01T00:53:04;8.50;;;3.30;;
12745;SDS011;6437;53.686;10.030;2023-04-01T00:55:08;8.52;;;2.58;;
12745;SDS011;6437;53.686;10.030;2023-04-01T00:57:12;17.10;;;3.40;;
12745;SDS011;6437;53.686;10.030;2023-04-01T00:59:18;14.30;;;2.97;;
12745;SDS011;6437;53.686;10.030;2023-04-01T01:01:23;15.68;;;3.47;;
12745;SDS011;6437;53.686;10.030;2023-04-01T01:03:26;7.45;;;2.03;;
12745;SDS011;6437;53.686;10.030;2023-04-01T01:05:30;10.90;;;3.40;;
12745;SDS011;6437;53.686;10.030;2023-04-01T01:07:40;13.07;;;2.63;;
12745;SDS011;6437;53.686;10.030;2023-04-01T01:09:51;7.47;;;2.20;;
12745;SDS011;6437;53.686;10.030;2023-04-01T01:12:00;9.30;;;3.30;;
12745;SDS011;6437;53.686;10.030;2023-04-01T01:14:09;8.25;;;2.28;;
12745;SDS011;6437;53.686;10.030;2023-04-01T01:16:21;9.40;;;3.35;;
12745;SDS011;6437;53.686;10.030;2023-04-01T01:18:27;7.43;;;2.92;;
12745;SDS011;6437;53.686;10.030;2023-04-01T01:23:34;9.38;;;3.03;;
12745;SDS011;6437;53.686;10.030;2023-04-01T01:26:09;8.60;;;3.95;;
12745;SDS011;6437;53.686;10.030;2023-04-01T01:28:28;9.48;;;2.90;;
12745;SDS011;6437;53.686;10.030;2023-04-01T01:30:43;12.45;;;3.65;;
12745;SDS011;6437;53.686;10.030;2023-04-01T01:35:18;7.93;;;3.17;;
12745;SDS011;6437;53.686;10.030;2023-04-01T01:37:24;9.88;;;2.17;;
12745;SDS011;6437;53.686;10.030;2023-04-01T01:39:30;13.73;;;3.10;;
12745;SDS011;6437;53.686;10.030;2023-04-01T01:41:35;10.05;;;3.25;;
12745;SDS011;6437;53.686;10.030;2023-04-01T01:43:38;8.98;;;3.42;;
12745;SDS011;6437;53.686;10.030;2023-04-01T01:45:44;9.13;;;4.13;;
12745;SDS011;6437;53.686;10.030;2023-04-01T01:47:49;13.52;;;2.65;;
12745;SDS011;6437;53.686;10.030;2023-04-01T01:49:52;12.65;;;3.53;;
12745;SDS011;6437;53.686;10.030;2023-04-01T01:51:57;9.63;;;4.07;;
12745;SDS011;6437;53.686;10.030;2023-04-01T01:53:59;9.60;;;4.03;;
12745;SDS011;6437;53.686;10.030;2023-04-01T01:56:00;8.50;;;3.05;;
12745;SDS011;6437;53.686;10.030;2023-04-01T01:58:04;13.43;;;3.63;;
12745;SDS011;6437;53.686;10.030;2023-04-01T02:00:11;11.25;;;3.95;;
12745;SDS011;6437;53.686;10.030;2023-04-01T02:02:14;11.02;;;3.88;;
12745;SDS011;6437;53.686;10.030;2023-04-01T02:04:17;9.75;;;3.35;;
12745;SDS011;6437;53.686;10.030;2023-04-01T02:06:21;6.22;;;2.65;;
12745;SDS011;6437;53.686;10.030;2023-04-01T02:08:26;19.25;;;4.30;;
12745;SDS011;6437;53.686;10.030;2023-04-01T02:10:32;7.00;;;3.55;;
12745;SDS011;6437;53.686;10.030;2023-04-01T02:12:37;10.48;;;3.03;;
12745;SDS011;6437;53.686;10.030;2023-04-01T02:14:41;6.18;;;2.85;;
12745;SDS011;6437;53.686;10.030;2023-04-01T02:16:48;6.45;;;3.08;;
12745;SDS011;6437;53.686;10.030;2023-04-01T02:18:52;15.57;;;4.80;;
12745;SDS011;6437;53.686;10.030;2023-04-01T02:20:56;9.27;;;3.08;;
12745;SDS011;6437;53.686;10.030;2023-04-01T02:23:00;7.90;;;2.97;;
12745;SDS011;6437;53.686;10.030;2023-04-01T02:25:05;8.48;;;3.92;;
12745;SDS011;6437;53.686;10.030;2023-04-01T02:27:09;9.85;;;3.90;;
12745;SDS011;6437;53.686;10.030;2023-04-01T02:29:11;11.63;;;4.45;;
12745;SDS011;6437;53.686;10.030;2023-04-01T02:31:14;13.63;;;4.60;;
12745;SDS011;6437;53.686;10.030;2023-04-01T02:35:18;14.85;;;4.75;;
12745;SDS011;6437;53.686;10.030;2023-04-01T02:37:20;10.77;;;3.17;;
12745;SDS011;6437;53.686;10.030;2023-04-01T02:39:22;10.23;;;3.50;;
12745;SDS011;6437;53.686;10.030;2023-04-01T02:41:27;7.18;;;2.88;;
12745;SDS011;6437;53.686;10.030;2023-04-01T02:43:29;8.43;;;3.65;;
12745;SDS011;6437;53.686;10.030;2023-04-01T02:45:30;11.25;;;3.25;;
12745;SDS011;6437;53.686;10.030;2023-04-01T02:47:32;8.00;;;3.17;;
12745;SDS011;6437;53.686;10.030;2023-04-01T02:49:34;9.93;;;4.82;;
12745;SDS011;6437;53.686;10.030;2023-04-01T02:51:36;11.05;;;3.75;;
12745;SDS011;6437;53.686;10.030;2023-04-01T02:53:37;7.07;;;4.35;;
12745;SDS011;6437;53.686;10.030;2023-04-01T02:55:39;9.70;;;3.83;;
12745;SDS011;6437;53.686;10.030;2023-04-01T02:57:42;6.25;;;4.28;;
12745;SDS011;6437;53.686;10.030;2023-04-01T02:59:44;9.88;;;4.43;;
12745;SDS011;6437;53.686;10.030;2023-04-01T03:01:46;15.20;;;4.38;;
12745;SDS011;6437;53.686;10.030;2023-04-01T03:03:48;12.32;;;4.50;;
12745;SDS011;6437;53.686;10.030;2023-04-01T03:05:50;7.60;;;3.70;;
12745;SDS011;6437;53.686;10.030;2023-04-01T03:07:51;13.85;;;4.22;;
12745;SDS011;6437;53.686;10.030;2023-04-01T03:09:53;8.88;;;4.13;;
12745;SDS011;6437;53.686;10.030;2023-04-01T03:11:55;11.50;;;4.65;;
12745;SDS011;6437;53.686;10.030;2023-04-01T03:13:58;9.23;;;3.65;;
12745;SDS011;6437;53.686;10.030;2023-04-01T03:15:59;9.13;;;5.07;;
12745;SDS011;6437;53.686;10.030;2023-04-01T03:18:01;10.63;;;4.45;;
12745;SDS011;6437;53.686;10.030;2023-04-01T03:20:04;6.38;;;3.83;;
12745;SDS011;6437;53.686;10.030;2023-04-01T03:22:08;8.95;;;3.15;;
12745;SDS011;6437;53.686;10.030;2023-04-01T03:24:11;12.63;;;3.65;;
12745;SDS011;6437;53.686;10.030;2023-04-01T03:26:13;10.50;;;4.47;;
12745;SDS011;6437;53.686;10.030;2023-04-01T03:28:15;9.70;;;4.47;;
12745;SDS011;6437;53.686;10.030;2023-04-01T03:30:18;11.77;;;3.55;;
12745;SDS011;6437;53.686;10.030;2023-04-01T03:32:20;6.43;;;4.18;;
12745;SDS011;6437;53.686;10.030;2023-04-01T03:34:22;11.30;;;4.78;;
12745;SDS011;6437;53.686;10.030;2023-04-01T03:36:24;7.65;;;4.05;;
12745;SDS011;6437;53.686;10.030;2023-04-01T03:38:25;7.38;;;3.95;;
12745;SDS011;6437;53.686;10.030;2023-04-01T03:40:27;17.42;;;5.40;;
12745;SDS011;6437;53.686;10.030;2023-04-01T03:42:29;10.18;;;4.68;;
12745;SDS011;6437;53.686;10.030;2023-04-01T03:44:32;9.02;;;3.75;;
12745;SDS011;6437;53.686;10.030;2023-04-01T03:46:35;12.48;;;4.95;;
12745;SDS011;6437;53.686;10.030;2023-04-01T03:48:37;5.68;;;4.00;;
12745;SDS011;6437;53.686;10.030;2023-04-01T03:50:39;9.82;;;5.15;;
12745;SDS011;6437;53.686;10.030;2023-04-01T03:52:40;15.90;;;4.40;;
12745;SDS011;6437;53.686;10.030;2023-04-01T03:54:42;9.68;;;4.28;;
12745;SDS011;6437;53.686;10.030;2023-04-01T03:56:44;6.28;;;3.45;;
12745;SDS011;6437;53.686;10.030;2023-04-01T03:58:46;8.32;;;4.75;;
12745;SDS011;6437;53.686;10.030;2023-04-01T04:00:47;10.07;;;5.60;;
12745;SDS011;6437;53.686;10.030;2023-04-01T04:02:51;12.35;;;4.75;;
12745;SDS011;6437;53.686;10.030;2023-04-01T04:04:52;13.43;;;4.90;;
12745;SDS011;6437;53.686;10.030;2023-04-01T04:06:54;6.65;;;4.32;;
12745;SDS011;6437;53.686;10.030;2023-04-01T04:10:58;7.40;;;4.25;;
12745;SDS011;6437;53.686;10.030;2023-04-01T04:13:00;12.68;;;5.80;;
12745;SDS011;6437;53.686;10.030;2023-04-01T04:15:01;9.73;;;4.80;;
12745;SDS011;6437;53.686;10.030;2023-04-01T04:17:03;7.18;;;3.83;;
12745;SDS011;6437;53.686;10.030;2023-04-01T04:19:07;6.28;;;4.05;;
12745;SDS011;6437;53.686;10.030;2023-04-01T04:21:11;5.18;;;2.67;;
12745;SDS011;6437;53.686;10.030;2023-04-01T04:23:13;3.80;;;1.60;;
12745;SDS011;6437;53.686;10.030;2023-04-01T04:25:15;2.10;;;1.52;;
12745;SDS011;6437;53.686;10.030;2023-04-01T04:27:17;1.70;;;0.68;;
12745;SDS011;6437;53.686;10.030;2023-04-01T04:29:19;3.75;;;0.52;;
12745;SDS011;6437;53.686;10.030;2023-04-01T04:33:23;2.53;;;0.65;;
12745;SDS011;6437;53.686;10.030;2023-04-01T04:35:27;2.17;;;0.60;;
12745;SDS011;6437;53.686;10.030;2023-04-01T04:37:29;2.28;;;0.45;;
12745;SDS011;6437;53.686;10.030;2023-04-01T04:39:31;1.98;;;0.50;;
12745;SDS011;6437;53.686;10.030;2023-04-01T04:41:32;2.40;;;0.40;;
12745;SDS011;6437;53.686;10.030;2023-04-01T04:43:34;0.50;;;0.40;;
12745;SDS011;6437;53.686;10.030;2023-04-01T04:45:36;0.82;;;0.60;;
12745;SDS011;6437;53.686;10.030;2023-04-01T04:47:38;0.40;;;0.40;;
12745;SDS011;6437;53.686;10.030;2023-04-01T04:49:39;0.80;;;0.40;;
12745;SDS011;6437;53.686;10.030;2023-04-01T04:51:42;0.68;;;0.40;;
12745;SDS011;6437;53.686;10.030;2023-04-01T04:53:44;0.60;;;0.50;;
12745;SDS011;6437;53.686;10.030;2023-04-01T04:55:46;1.23;;;0.38;;
12745;SDS011;6437;53.686;10.030;2023-04-01T04:57:49;0.65;;;0.50;;
12745;SDS011;6437;53.686;10.030;2023-04-01T04:59:51;0.85;;;0.40;;
12745;SDS011;6437;53.686;10.030;2023-04-01T05:01:52;1.35;;;0.50;;
12745;SDS011;6437;53.686;10.030;2023-04-01T05:03:54;1.90;;;0.40;;
12745;SDS011;6437;53.686;10.030;2023-04-01T05:05:56;0.85;;;0.40;;
12745;SDS011;6437;53.686;10.030;2023-04-01T05:07:59;1.38;;;0.68;;
12745;SDS011;6437;53.686;10.030;2023-04-01T05:10:01;0.80;;;0.30;;
12745;SDS011;6437;53.686;10.030;2023-04-01T05:12:03;0.77;;;0.40;;
12745;SDS011;6437;53.686;10.030;2023-04-01T05:16:07;0.45;;;0.28;;
12745;SDS011;6437;53.686;10.030;2023-04-01T05:18:10;1.50;;;0.38;;
12745;SDS011;6437;53.686;10.030;2023-04-01T05:20:12;3.80;;;0.30;;
12745;SDS011;6437;53.686;10.030;2023-04-01T05:22:14;0.90;;;0.40;;
12745;SDS011;6437;53.686;10.030;2023-04-01T05:24:17;0.85;;;0.40;;
12745;SDS011;6437;53.686;10.030;2023-04-01T05:26:19;0.60;;;0.30;;
12745;SDS011;6437;53.686;10.030;2023-04-01T05:28:21;0.65;;;0.30;;
12745;SDS011;6437;53.686;10.030;2023-04-01T05:30:23;0.30;;;0.30;;
12745;SDS011;6437;53.686;10.030;2023-04-01T05:32:24;0.40;;;0.40;;
12745;SDS011;6437;53.686;10.030;2023-04-01T05:34:26;2.28;;;0.30;;
12745;SDS011;6437;53.686;10.030;2023-04-01T05:36:28;0.55;;;0.30;;
12745;SDS011;6437;53.686;10.030;2023-04-01T05:38:30;0.68;;;0.40;;
12745;SDS011;6437;53.686;10.030;2023-04-01T05:40:33;4.30;;;0.38;;
12745;SDS011;6437;53.686;10.030;2023-04-01T05:42:35;0.75;;;0.38;;
12745;SDS011;6437;53.686;10.030;2023-04-01T05:44:36;0.38;;;0.30;;
12745;SDS011;6437;53.686;10.030;2023-04-01T05:46:38;1.45;;;0.30;;
12745;SDS011;6437;53.686;10.030;2023-04-01T05:48:40;2.15;;;0.38;;
12745;SDS011;6437;53.686;10.030;2023-04-01T05:50:41;0.57;;;0.30;;
12745;SDS011;6437;53.686;10.030;2023-04-01T05:52:43;0.50;;;0.22;;
12745;SDS011;6437;53.686;10.030;2023-04-01T05:54:45;1.02;;;0.50;;
12745;SDS011;6437;53.686;10.030;2023-04-01T05:56:48;0.88;;;0.40;;
12745;SDS011;6437;53.686;10.030;2023-04-01T05:58:51;0.30;;;0.30;;
12745;SDS011;6437;53.686;10.030;2023-04-01T06:00:59;3.30;;;0.30;;
12745;SDS011;6437;53.686;10.030;2023-04-01T06:03:02;0.45;;;0.30;;
12745;SDS011;6437;53.686;10.030;2023-04-01T06:05:11;0.88;;;0.30;;
12745;SDS011;6437;53.686;10.030;2023-04-01T06:07:17;0.50;;;0.38;;
12745;SDS011;6437;53.686;10.030;2023-04-01T06:09:21;0.30;;;0.28;;
12745;SDS011;6437;53.686;10.030;2023-04-01T06:11:31;0.20;;;0.20;;
12745;SDS011;6437;53.686;10.030;2023-04-01T06:13:47;1.13;;;0.20;;
12745;SDS011;6437;53.686;10.030;2023-04-01T06:16:07;0.20;;;0.20;;
12745;SDS011;6437;53.686;10.030;2023-04-01T06:20:50;1.40;;;0.40;;
12745;SDS011;6437;53.686;10.030;2023-04-01T06:23:10;0.82;;;0.30;;
12745;SDS011;6437;53.686;10.030;2023-04-01T06:25:29;0.68;;;0.50;;
12745;SDS011;6437;53.686;10.030;2023-04-01T06:27:58;0.57;;;0.25;;
12745;SDS011;6437;53.686;10.030;2023-04-01T06:30:13;3.13;;;0.30;;
12745;SDS011;6437;53.686;10.030;2023-04-01T06:35:21;0.43;;;0.28;;
12745;SDS011;6437;53.686;10.030;2023-04-01T06:37:44;2.83;;;0.30;;
12745;SDS011;6437;53.686;10.030;2023-04-01T06:40:02;4.20;;;0.43;;
12745;SDS011;6437;53.686;10.030;2023-04-01T06:42:17;0.40;;;0.20;;
12745;SDS011;6437;53.686;10.030;2023-04-01T06:46:39;0.65;;;0.20;;
12745;SDS011;6437;53.686;10.030;2023-04-01T06:48:51;1.73;;;0.40;;
12745;SDS011;6437;53.686;10.030;2023-04-01T06:51:06;0.57;;;0.30;;
12745;SDS011;6437;53.686;10.030;2023-04-01T06:53:15;0.20;;;0.20;;
12745;SDS011;6437;53.686;10.030;2023-04-01T06:55:24;0.75;;;0.25;;
12745;SDS011;6437;53.686;10.030;2023-04-01T06:57:34;1.95;;;0.20;;
12745;SDS011;6437;53.686;10.030;2023-04-01T06:59:40;0.38;;;0.20;;
12745;SDS011;6437;53.686;10.030;2023-04-01T07:01:44;0.45;;;0.25;;
12745;SDS011;6437;53.686;10.030;2023-04-01T07:03:50;1.75;;;0.30;;
12745;SDS011;6437;53.686;10.030;2023-04-01T07:05:55;0.65;;;0.30;;
12745;SDS011;6437;53.686;10.030;2023-04-01T07:08:01;1.55;;;0.30;;
12745;SDS011;6437;53.686;10.030;2023-04-01T07:10:10;0.75;;;0.30;;
12745;SDS011;6437;53.686;10.030;2023-04-01T07:12:15;1.38;;;0.25;;
12745;SDS011;6437;53.686;10.030;2023-04-01T07:14:23;1.38;;;0.30;;
12745;SDS011;6437;53.686;10.030;2023-04-01T07:16:30;1.00;;;0.35;;
12745;SDS011;6437;53.686;10.030;2023-04-01T07:18:37;0.85;;;0.22;;
12745;SDS011;6437;53.686;10.030;2023-04-01T07:20:43;6.78;;;0.20;;
12745;SDS011;6437;53.686;10.030;2023-04-01T07:22:48;2.47;;;0.30;;
12745;SDS011;6437;53.686;10.030;2023-04-01T07:24:51;1.75;;;0.20;;
12745;SDS011;6437;53.686;10.030;2023-04-01T07:26:58;0.30;;;0.30;;
12745;SDS011;6437;53.686;10.030;2023-04-01T07:29:00;1.10;;;0.20;;
12745;SDS011;6437;53.686;10.030;2023-04-01T07:31:05;2.40;;;0.22;;
12745;SDS011;6437;53.686;10.030;2023-04-01T07:33:15;3.15;;;0.25;;
12745;SDS011;6437;53.686;10.030;2023-04-01T07:35:23;1.60;;;0.22;;
12745;SDS011;6437;53.686;10.030;2023-04-01T07:37:28;0.95;;;0.20;;
12745;SDS011;6437;53.686;10.030;2023-04-01T07:39:36;0.57;;;0.20;;
12745;SDS011;6437;53.686;10.030;2023-04-01T07:41:48;4.20;;;0.30;;
12745;SDS011;6437;53.686;10.030;2023-04-01T07:43:56;0.95;;;0.30;;
12745;SDS011;6437;53.686;10.030;2023-04-01T07:46:09;0.35;;;0.30;;
12745;SDS011;6437;53.686;10.030;2023-04-01T07:48:21;0.80;;;0.30;;
12745;SDS011;6437;53.686;10.030;2023-04-01T07:50:29;1.13;;;0.20;;
12745;SDS011;6437;53.686;10.030;2023-04-01T07:52:35;0.90;;;0.30;;
12745;SDS011;6437;53.686;10.030;2023-04-01T07:54:43;0.63;;;0.30;;
12745;SDS011;6437;53.686;10.030;2023-04-01T07:56:55;0.50;;;0.30;;
12745;SDS011;6437;53.686;10.030;2023-04-01T07:59:03;1.75;;;0.20;;
12745;SDS011;6437;53.686;10.030;2023-04-01T08:01:10;0.50;;;0.30;;
12745;SDS011;6437;53.686;10.030;2023-04-01T08:03:31;1.17;;;0.30;;
12745;SDS011;6437;53.686;10.030;2023-04-01T08:05:44;1.55;;;0.30;;
12745;SDS011;6437;53.686;10.030;2023-04-01T08:07:55;0.70;;;0.30;;
12745;SDS011;6437;53.686;10.030;2023-04-01T08:10:07;1.63;;;0.32;;
12745;SDS011;6437;53.686;10.030;2023-04-01T08:12:18;0.30;;;0.30;;
12745;SDS011;6437;53.686;10.030;2023-04-01T08:14:28;1.27;;;0.40;;
12745;SDS011;6437;53.686;10.030;2023-04-01T08:16:37;1.70;;;0.90;;
12745;SDS011;6437;53.686;10.030;2023-04-01T08:18:50;3.47;;;0.90;;
12745;SDS011;6437;53.686;10.030;2023-04-01T08:21:01;2.43;;;0.80;;
12745;SDS011;6437;53.686;10.030;2023-04-01T08:23:06;3.50;;;1.25;;
12745;SDS011;6437;53.686;10.030;2023-04-01T08:25:16;3.60;;;0.98;;
12745;SDS011;6437;53.686;10.030;2023-04-01T08:27:23;1.30;;;0.47;;
12745;SDS011;6437;53.686;10.030;2023-04-01T08:29:31;1.38;;;0.35;;
12745;SDS011;6437;53.686;10.030;2023-04-01T08:31:40;1.45;;;0.40;;
12745;SDS011;6437;53.686;10.030;2023-04-01T08:33:47;1.77;;;0.73;;
12745;SDS011;6437;53.686;10.030;2023-04-01T08:35:54;1.40;;;0.70;;
12745;SDS011;6437;53.686;10.030;2023-04-01T08:38:04;0.80;;;0.20;;
12745;SDS011;6437;53.686;10.030;2023-04-01T08:40:25;0.50;;;0.30;;
12745;SDS011;6437;53.686;10.030;2023-04-01T08:42:46;0.47;;;0.30;;
12745;SDS011;6437;53.686;10.030;2023-04-01T08:45:03;0.40;;;0.20;;
12745;SDS011;6437;53.686;10.030;2023-04-01T08:47:20;2.30;;;0.28;;
12745;SDS011;6437;53.686;10.030;2023-04-01T08:49:50;1.17;;;0.40;;
12745;SDS011;6437;53.686;10.030;2023-04-01T08:52:17;0.30;;;0.30;;
12745;SDS011;6437;53.686;10.030;2023-04-01T08:54:33;1.70;;;0.40;;
12745;SDS011;6437;53.686;10.030;2023-04-01T08:56:59;4.43;;;0.30;;
12745;SDS011;6437;53.686;10.030;2023-04-01T08:59:14;1.13;;;0.30;;
12745;SDS011;6437;53.686;10.030;2023-04-01T09:01:36;2.78;;;0.35;;
12745;SDS011;6437;53.686;10.030;2023-04-01T09:06:23;1.27;;;0.30;;
12745;SDS011;6437;53.686;10.030;2023-04-01T09:08:31;2.38;;;0.30;;
12745;SDS011;6437;53.686;10.030;2023-04-01T09:13:16;3.35;;;0.20;;
12745;SDS011;6437;53.686;10.030;2023-04-01T09:18:06;0.32;;;0.20;;
12745;SDS011;6437;53.686;10.030;2023-04-01T09:20:32;1.10;;;0.20;;
12745;SDS011;6437;53.686;10.030;2023-04-01T09:23:00;0.90;;;0.30;;
12745;SDS011;6437;53.686;10.030;2023-04-01T09:27:54;1.35;;;0.30;;
12745;SDS011;6437;53.686;10.030;2023-04-01T09:32:59;1.77;;;0.20;;
12745;SDS011;6437;53.686;10.030;2023-04-01T09:35:29;0.50;;;0.20;;
12745;SDS011;6437;53.686;10.030;2023-04-01T09:37:57;0.80;;;0.30;;
12745;SDS011;6437;53.686;10.030;2023-04-01T09:40:14;1.00;;;0.30;;
12745;SDS011;6437;53.686;10.030;2023-04-01T09:42:29;0.73;;;0.20;;
12745;SDS011;6437;53.686;10.030;2023-04-01T09:44:46;1.67;;;0.30;;
12745;SDS011;6437;53.686;10.030;2023-04-01T09:46:59;5.70;;;0.40;;
12745;SDS011;6437;53.686;10.030;2023-04-01T09:49:20;0.43;;;0.30;;
12745;SDS011;6437;53.686;10.030;2023-04-01T09:51:37;0.65;;;0.30;;
12745;SDS011;6437;53.686;10.030;2023-04-01T09:53:48;0.38;;;0.20;;
12745;SDS011;6437;53.686;10.030;2023-04-01T09:56:14;0.30;;;0.25;;
12745;SDS011;6437;53.686;10.030;2023-04-01T09:58:39;1.00;;;0.32;;
12745;SDS011;6437;53.686;10.030;2023-04-01T10:01:03;0.35;;;0.30;;
12745;SDS011;6437;53.686;10.030;2023-04-01T10:06:26;0.40;;;0.20;;
12745;SDS011;6437;53.686;10.030;2023-04-01T10:14:15;1.40;;;0.20;;
12745;SDS011;6437;53.686;10.030;2023-04-01T10:19:22;0.43;;;0.20;;
12745;SDS011;6437;53.686;10.030;2023-04-01T10:21:56;1.48;;;0.20;;
12745;SDS011;6437;53.686;10.030;2023-04-01T10:24:25;0.32;;;0.20;;
12745;SDS011;6437;53.686;10.030;2023-04-01T10:26:50;0.20;;;0.20;;
12745;SDS011;6437;53.686;10.030;2023-04-01T10:29:17;0.98;;;0.30;;
12745;SDS011;6437;53.686;10.030;2023-04-01T10:31:54;0.90;;;0.30;;
12745;SDS011;6437;53.686;10.030;2023-04-01T10:37:04;0.38;;;0.20;;
12745;SDS011;6437;53.686;10.030;2023-04-01T10:39:28;0.73;;;0.20;;
12745;SDS011;6437;53.686;10.030;2023-04-01T10:41:43;0.57;;;0.20;;
12745;SDS011;6437;53.686;10.030;2023-04-01T10:46:38;0.20;;;0.20;;
12745;SDS011;6437;53.686;10.030;2023-04-01T10:49:10;0.93;;;0.30;;
12745;SDS011;6437;53.686;10.030;2023-04-01T10:51:34;0.65;;;0.30;;
12745;SDS011;6437;53.686;10.030;2023-04-01T11:01:27;1.27;;;0.30;;
12745;SDS011;6437;53.686;10.030;2023-04-01T11:09:34;1.65;;;0.40;;
12745;SDS011;6437;53.686;10.030;2023-04-01T11:17:25;0.95;;;0.30;;
12745;SDS011;6437;53.686;10.030;2023-04-01T11:20:02;1.35;;;0.47;;
12745;SDS011;6437;53.686;10.030;2023-04-01T11:27:09;2.38;;;0.70;;
12745;SDS011;6437;53.686;10.030;2023-04-01T11:29:23;0.73;;;0.30;;
12745;SDS011;6437;53.686;10.030;2023-04-01T11:31:52;2.58;;;0.60;;
12745;SDS011;6437;53.686;10.030;2023-04-01T11:34:02;3.40;;;0.80;;
12745;SDS011;6437;53.686;10.030;2023-04-01T11:36:14;2.15;;;0.65;;
12745;SDS011;6437;53.686;10.030;2023-04-01T11:38:32;3.80;;;0.90;;
12745;SDS011;6437;53.686;10.030;2023-04-01T11:40:47;3.40;;;1.38;;
12745;SDS011;6437;53.686;10.030;2023-04-01T11:42:59;4.18;;;0.43;;
12745;SDS011;6437;53.686;10.030;2023-04-01T11:45:15;3.30;;;1.48;;
12745;SDS011;6437;53.686;10.030;2023-04-01T11:47:40;1.38;;;0.70;;
12745;SDS011;6437;53.686;10.030;2023-04-01T11:52:26;6.63;;;1.13;;
12745;SDS011;6437;53.686;10.030;2023-04-01T11:55:06;5.60;;;0.90;;
12745;SDS011;6437;53.686;10.030;2023-04-01T12:00:14;2.85;;;1.05;;
12745;SDS011;6437;53.686;10.030;2023-04-01T12:02:24;3.13;;;0.80;;
12745;SDS011;6437;53.686;10.030;2023-04-01T12:07:00;4.35;;;0.80;;
12745;SDS011;6437;53.686;10.030;2023-04-01T12:09:08;4.03;;;0.75;;
12745;SDS011;6437;53.686;10.030;2023-04-01T12:11:19;7.78;;;1.13;;
12745;SDS011;6437;53.686;10.030;2023-04-01T12:13:31;3.97;;;0.88;;
12745;SDS011;6437;53.686;10.030;2023-04-01T12:15:46;2.20;;;0.73;;
12745;SDS011;6437;53.686;10.030;2023-04-01T12:18:00;3.83;;;1.20;;
12745;SDS011;6437;53.686;10.030;2023-04-01T12:20:26;5.40;;;1.30;;
12745;SDS011;6437;53.686;10.030;2023-04-01T12:22:39;4.95;;;0.80;;
12745;SDS011;6437;53.686;10.030;2023-04-01T12:24:47;6.63;;;1.20;;
12745;SDS011;6437;53.686;10.030;2023-04-01T12:26:55;5.65;;;1.20;;
12745;SDS011;6437;53.686;10.030;2023-04-01T12:29:13;5.57;;;0.90;;
12745;SDS011;6437;53.686;10.030;2023-04-01T12:31:42;3.92;;;0.85;;
12745;SDS011;6437;53.686;10.030;2023-04-01T12:36:35;3.55;;;1.00;;
12745;SDS011;6437;53.686;10.030;2023-04-01T12:38:47;4.93;;;1.75;;
12745;SDS011;6437;53.686;10.030;2023-04-01T12:41:01;3.22;;;1.15;;
12745;SDS011;6437;53.686;10.030;2023-04-01T12:45:57;6.75;;;1.23;;
12745;SDS011;6437;53.686;10.030;2023-04-01T12:53:24;5.80;;;0.95;;
12745;SDS011;6437;53.686;10.030;2023-04-01T12:55:47;5.10;;;1.27;;
12745;SDS011;6437;53.686;10.030;2023-04-01T12:58:02;4.13;;;0.70;;
12745;SDS011;6437;53.686;10.030;2023-04-01T13:00:29;6.53;;;0.90;;
12745;SDS011;6437;53.686;10.030;2023-04-01T13:02:51;4.57;;;1.08;;
12745;SDS011;6437;53.686;10.030;2023-04-01T13:05:13;5.13;;;1.35;;
12745;SDS011;6437;53.686;10.030;2023-04-01T13:07:36;4.00;;;1.13;;
12745;SDS011;6437;53.686;10.030;2023-04-01T13:09:49;7.80;;;1.45;;
12745;SDS011;6437;53.686;10.030;2023-04-01T13:12:03;3.65;;;0.98;;
12745;SDS011;6437;53.686;10.030;2023-04-01T13:14:33;5.25;;;1.63;;
12745;SDS011;6437;53.686;10.030;2023-04-01T13:16:45;8.43;;;1.00;;
12745;SDS011;6437;53.686;10.030;2023-04-01T13:18:57;5.10;;;1.10;;
12745;SDS011;6437;53.686;10.030;2023-04-01T13:21:04;5.28;;;1.02;;
12745;SDS011;6437;53.686;10.030;2023-04-01T13:23:18;6.82;;;0.98;;
12745;SDS011;6437;53.686;10.030;2023-04-01T13:25:32;4.22;;;0.82;;
12745;SDS011;6437;53.686;10.030;2023-04-01T13:27:40;5.55;;;1.33;;
12745;SDS011;6437;53.686;10.030;2023-04-01T13:29:47;5.28;;;0.82;;
12745;SDS011;6437;53.686;10.030;2023-04-01T13:32:05;9.60;;;2.15;;
12745;SDS011;6437;53.686;10.030;2023-04-01T13:34:26;4.15;;;0.60;;
12745;SDS011;6437;53.686;10.030;2023-04-01T13:36:36;4.38;;;0.90;;
12745;SDS011;6437;53.686;10.030;2023-04-01T13:38:53;3.38;;;0.80;;
12745;SDS011;6437;53.686;10.030;2023-04-01T13:41:19;4.22;;;1.95;;
12745;SDS011;6437;53.686;10.030;2023-04-01T13:43:31;4.40;;;0.60;;
12745;SDS011;6437;53.686;10.030;2023-04-01T13:45:38;7.20;;;1.10;;
12745;SDS011;6437;53.686;10.030;2023-04-01T13:47:58;5.57;;;1.42;;
12745;SDS011;6437;53.686;10.030;2023-04-01T13:50:31;3.78;;;1.05;;
12745;SDS011;6437;53.686;10.030;2023-04-01T13:52:51;5.32;;;1.35;;
12745;SDS011;6437;53.686;10.030;2023-04-01T13:55:19;4.90;;;1.20;;
12745;SDS011;6437;53.686;10.030;2023-04-01T13:57:34;2.63;;;0.70;;
12745;SDS011;6437;53.686;10.030;2023-04-01T13:59:57;7.30;;;0.93;;
12745;SDS011;6437;53.686;10.030;2023-04-01T14:02:16;8.52;;;1.45;;
12745;SDS011;6437;53.686;10.030;2023-04-01T14:04:43;7.95;;;1.27;;
12745;SDS011;6437;53.686;10.030;2023-04-01T14:06:58;5.70;;;1.10;;
12745;SDS011;6437;53.686;10.030;2023-04-01T14:11:43;5.22;;;1.17;;
12745;SDS011;6437;53.686;10.030;2023-04-01T14:13:57;4.40;;;1.00;;
12745;SDS011;6437;53.686;10.030;2023-04-01T14:16:11;7.93;;;1.70;;
12745;SDS011;6437;53.686;10.030;2023-04-01T14:18:33;5.00;;;0.77;;
12745;SDS011;6437;53.686;10.030;2023-04-01T14:20:47;4.43;;;1.52;;
12745;SDS011;6437;53.686;10.030;2023-04-01T14:25:47;9.25;;;1.65;;
12745;SDS011;6437;53.686;10.030;2023-04-01T14:28:03;6.97;;;1.42;;
12745;SDS011;6437;53.686;10.030;2023-04-01T14:30:20;6.93;;;1.25;;
12745;SDS011;6437;53.686;10.030;2023-04-01T14:32:38;11.63;;;3.45;;
12745;SDS011;6437;53.686;10.030;2023-04-01T14:34:52;13.05;;;2.47;;
12745;SDS011;6437;53.686;10.030;2023-04-01T14:39:29;5.18;;;1.40;;
12745;SDS011;6437;53.686;10.030;2023-04-01T14:41:45;11.02;;;1.92;;
12745;SDS011;6437;53.686;10.030;2023-04-01T14:43:58;5.28;;;1.25;;
12745;SDS011;6437;53.686;10.030;2023-04-01T14:46:32;7.45;;;1.05;;